Time;durP1;ratioP1;P1;durP2;ratioP2;P2;SDS_P1;SDS_P2;PMS_P1;PMS_P2;Temp;Humidity;BMP_temperature;BMP_pressure;BME280_temperature;BME280_humidity;BME280_pressure;Samples;Min_cycle;Max_cycle;Signal;HPM_P1;HPM_P2
2022/06/15 00:03:46;;;;;;;7.70;2.47;;;;;;;14.06;100.00;102032.78;10226143;28;20111;-68
2022/06/15 00:08:44;;;;;;;5.90;2.60;;;;;;;13.97;100.00;102040.16;10222414;28;20537;-68
2022/06/15 00:13:41;;;;;;;6.53;2.58;;;;;;;13.99;100.00;102032.38;10229790;28;20141;-68
2022/06/15 00:18:38;;;;;;;5.65;2.30;;;;;;;13.98;100.00;102030.75;10233655;28;20045;-67
2022/06/15 00:23:35;;;;;;;7.95;2.90;;;;;;;13.94;100.00;102018.75;10221703;28;20478;-69
2022/06/15 00:28:32;;;;;;;5.88;2.75;;;;;;;13.98;100.00;102028.00;10228782;28;20132;-69
2022/06/15 00:33:29;;;;;;;7.38;3.05;;;;;;;14.02;100.00;102026.28;10226746;28;20080;-67
2022/06/15 00:38:33;;;;;;;6.13;2.75;;;;;;;14.06;100.00;102027.28;10221214;28;20046;-70
2022/06/15 00:43:37;;;;;;;7.07;2.42;;;;;;;14.09;100.00;102032.16;10227532;28;20042;-68
2022/06/15 00:48:34;;;;;;;6.47;2.80;;;;;;;14.12;100.00;102030.72;10231370;28;20567;-69
2022/06/15 00:53:30;;;;;;;6.00;3.00;;;;;;;14.13;100.00;102026.03;10229590;28;20507;-67
2022/06/15 00:58:27;;;;;;;6.90;2.53;;;;;;;14.15;100.00;102023.78;10230326;28;20069;-66
2022/06/15 01:03:24;;;;;;;6.13;2.80;;;;;;;14.20;100.00;102018.16;10232057;28;20091;-67
2022/06/15 01:08:35;;;;;;;6.25;2.42;;;;;;;14.18;100.00;102012.16;10230469;28;20092;-67
2022/06/15 01:13:54;;;;;;;7.43;2.75;;;;;;;14.18;100.00;102014.91;10231254;28;20123;-70
2022/06/15 01:19:21;;;;;;;6.05;2.15;;;;;;;14.18;100.00;102017.66;10221612;28;20045;-69
2022/06/15 01:24:37;;;;;;;5.32;2.40;;;;;;;14.16;100.00;102006.19;10219434;28;20042;-69
2022/06/15 01:30:26;;;;;;;5.47;2.80;;;;;;;14.15;100.00;102023.78;10222237;28;20449;-67
2022/06/15 01:35:32;;;;;;;7.05;2.72;;;;;;;14.17;100.00;102016.84;10132682;28;20074;-67
2022/06/15 01:40:41;;;;;;;7.80;2.47;;;;;;;14.22;100.00;102013.97;10204006;28;20484;-69
2022/06/15 01:45:39;;;;;;;4.82;2.47;;;;;;;14.23;100.00;102023.06;10219347;28;20179;-69
2022/06/15 01:50:45;;;;;;;7.45;2.75;;;;;;;14.19;100.00;102020.09;10229108;28;20041;-69
2022/06/15 01:55:51;;;;;;;5.05;2.33;;;;;;;14.19;100.00;102013.81;10219630;28;20080;-69
2022/06/15 02:00:58;;;;;;;6.53;2.63;;;;;;;14.22;100.00;102007.66;10229224;28;20072;-69
2022/06/15 02:06:15;;;;;;;6.50;2.88;;;;;;;14.23;100.00;102014.81;10208287;28;20073;-68
2022/06/15 02:11:21;;;;;;;5.95;2.38;;;;;;;14.19;100.00;102013.81;10219927;28;20642;-68
2022/06/15 02:16:26;;;;;;;8.10;2.97;;;;;;;14.23;100.00;102009.31;10221732;28;20077;-67
2022/06/15 02:21:26;;;;;;;6.65;2.78;;;;;;;14.22;100.00;102007.66;10221481;28;20049;-70
2022/06/15 02:26:26;;;;;;;6.13;2.60;;;;;;;14.21;100.00;102003.31;10219997;28;20569;-69
2022/06/15 02:31:22;;;;;;;6.25;2.72;;;;;;;14.19;100.00;102002.78;10220658;28;20041;-68
2022/06/15 02:36:19;;;;;;;6.53;2.85;;;;;;;14.22;100.00;102010.41;10223108;28;20147;-69
2022/06/15 02:41:19;;;;;;;5.63;2.90;;;;;;;14.23;100.00;102001.88;10225540;28;20586;-69
2022/06/15 02:46:18;;;;;;;6.13;2.70;;;;;;;14.23;100.00;102001.88;10221924;28;20099;-70
2022/06/15 02:51:37;;;;;;;8.20;2.75;;;;;;;14.24;100.00;101988.91;10220768;28;20414;-69
2022/06/15 02:56:35;;;;;;;6.78;3.15;;;;;;;14.22;100.00;101993.91;10208894;28;20045;-69
2022/06/15 03:01:34;;;;;;;6.50;2.47;;;;;;;14.21;100.00;101992.31;10222887;28;20045;-70
2022/06/15 03:06:31;;;;;;;5.50;2.38;;;;;;;14.18;100.00;101984.66;10220683;28;20049;-69
2022/06/15 03:11:28;;;;;;;5.25;2.60;;;;;;;14.12;100.00;101992.22;10219247;28;20045;-69
2022/06/15 03:16:24;;;;;;;8.73;3.22;;;;;;;14.07;100.00;101993.16;10214300;28;20132;-69
2022/06/15 03:21:21;;;;;;;6.38;3.15;;;;;;;14.02;100.00;101990.53;10211566;28;20668;-70
2022/06/15 03:26:18;;;;;;;6.50;2.92;;;;;;;14.06;100.00;101997.03;10211954;28;20049;-70
2022/06/15 03:31:15;;;;;;;5.90;2.65;;;;;;;14.09;100.00;101999.16;10209412;28;20045;-68
2022/06/15 03:36:14;;;;;;;5.10;2.20;;;;;;;14.13;100.00;102001.28;10198871;28;20049;-67
2022/06/15 03:41:12;;;;;;;7.82;3.08;;;;;;;14.17;100.00;101994.03;10213020;28;20049;-66
2022/06/15 03:46:09;;;;;;;5.90;2.78;;;;;;;14.18;100.00;101998.41;10225776;28;20604;-68
2022/06/15 03:51:06;;;;;;;9.20;3.05;;;;;;;14.21;100.00;101995.06;10221212;28;20674;-67
2022/06/15 03:56:03;;;;;;;6.07;2.33;;;;;;;14.25;100.00;101990.53;10219619;28;20141;-67
2022/06/15 04:00:59;;;;;;;7.53;2.80;;;;;;;14.27;100.00;101993.78;10196950;28;20050;-68
2022/06/15 04:05:58;;;;;;;6.07;2.75;;;;;;;14.30;100.00;101993.19;10209228;28;20069;-68
2022/06/15 04:10:55;;;;;;;5.15;2.53;;;;;;;14.31;100.00;102000.31;10190668;28;20096;-68
2022/06/15 04:15:52;;;;;;;5.70;2.28;;;;;;;14.32;100.00;101996.44;10186042;28;20115;-68
2022/06/15 04:20:48;;;;;;;11.02;2.70;;;;;;;14.36;100.00;101997.41;10199606;28;20757;-67
2022/06/15 04:25:51;;;;;;;6.18;2.50;;;;;;;14.41;100.00;101989.06;10193455;28;20069;-68
2022/06/15 04:30:48;;;;;;;;;;;;;;;14.47;100.00;101990.53;10203645;28;20049;-68
2022/06/15 04:35:45;;;;;;;10.55;2.83;;;;;;;14.52;100.00;101998.66;10199671;28;20015;-68
2022/06/15 04:40:41;;;;;;;10.63;3.15;;;;;;;14.58;100.00;101993.91;10200665;28;20892;-69
2022/06/15 04:45:38;;;;;;;5.90;2.50;;;;;;;14.65;100.00;101998.97;10197381;28;21327;-68
2022/06/15 04:50:36;;;;;;;5.22;2.00;;;;;;;14.72;100.00;101999.31;10200380;28;20076;-72
2022/06/15 04:55:33;;;;;;;7.95;2.72;;;;;;;14.77;100.00;102007.44;10201068;28;20576;-73
2022/06/15 05:00:35;;;;;;;10.27;3.00;;;;;;;14.81;100.00;102002.13;10212316;28;20137;-70
2022/06/15 05:05:32;;;;;;;13.23;2.27;;;;;;;14.84;100.00;101996.78;10213898;28;20169;-70
2022/06/15 05:10:29;;;;;;;6.13;2.47;;;;;;;14.78;100.00;102002.75;10215375;28;20061;-70
2022/06/15 05:15:25;;;;;;;5.75;2.03;;;;;;;14.73;100.00;102007.25;10217695;28;20041;-70
2022/06/15 05:20:22;;;;;;;5.15;1.90;;;;;;;14.75;100.00;101995.13;10219683;28;20053;-70
2022/06/15 05:25:23;;;;;;;7.38;2.45;;;;;;;14.67;100.00;101999.47;10225606;28;20052;-70
2022/06/15 05:30:19;;;;;;;4.55;2.00;;;;;;;14.69;100.00;102002.69;10228272;28;20791;-70
2022/06/15 05:35:16;;;;;;;5.80;1.85;;;;;;;14.73;100.00;102007.25;10225739;28;20068;-70
2022/06/15 05:40:13;;;;;;;6.85;2.40;;;;;;;14.79;100.00;102004.38;10221997;28;20115;-70
2022/06/15 05:45:10;;;;;;;4.30;1.60;;;;;;;14.86;100.00;102005.56;10224251;28;20045;-70
2022/06/15 05:50:08;;;;;;;8.23;2.15;;;;;;;15.00;100.00;102004.66;10218526;28;20057;-69
2022/06/15 05:55:08;;;;;;;5.10;1.70;;;;;;;15.01;100.00;102007.09;10227118;28;20057;-70
2022/06/15 06:00:05;;;;;;;6.35;2.25;;;;;;;15.05;100.00;102008.06;10227667;28;20103;-71
2022/06/15 06:05:02;;;;;;;8.10;2.10;;;;;;;15.10;100.00;102009.88;10225320;28;20553;-69
2022/06/15 06:09:59;;;;;;;8.10;2.10;;;;;;;15.13;100.00;102014.75;10228593;28;20088;-71
2022/06/15 06:14:56;;;;;;;8.73;2.40;;;;;;;15.15;100.00;102009.75;10219927;28;20068;-71
2022/06/15 06:19:52;;;;;;;6.22;2.08;;;;;;;15.18;100.00;102011.88;10229409;28;20168;-71
2022/06/15 06:24:49;;;;;;;6.03;2.08;;;;;;;15.12;100.00;102015.88;10219992;28;20037;-71
2022/06/15 06:29:46;;;;;;;6.57;1.88;;;;;;;15.16;100.00;102014.13;10223918;28;20058;-71
2022/06/15 06:34:42;;;;;;;7.50;1.80;;;;;;;15.12;100.00;102013.94;10221195;28;20132;-71
2022/06/15 06:39:40;;;;;;;8.55;2.63;;;;;;;15.19;100.00;102013.50;10224376;28;20069;-71
2022/06/15 06:44:36;;;;;;;5.70;1.48;;;;;;;15.24;100.00;102027.13;10227390;28;20621;-71
2022/06/15 06:49:33;;;;;;;5.97;1.77;;;;;;;15.29;100.00;102018.72;10225917;28;20555;-71
2022/06/15 06:54:31;;;;;;;6.18;2.10;;;;;;;15.41;100.00;102025.56;10220214;28;20048;-71
2022/06/15 06:59:28;;;;;;;3.95;1.40;;;;;;;15.38;100.00;102020.69;10218728;28;20438;-71
2022/06/15 07:04:24;;;;;;;5.22;1.30;;;;;;;15.51;100.00;102026.09;10227813;28;20114;-71
2022/06/15 07:09:21;;;;;;;5.70;2.42;;;;;;;15.63;100.00;102022.72;10219272;28;20481;-71
2022/06/15 07:14:18;;;;;;;7.50;1.73;;;;;;;15.76;100.00;102024.56;10223576;28;20555;-71
2022/06/15 07:19:14;;;;;;;5.05;1.50;;;;;;;15.89;100.00;102024.75;10227438;28;20536;-70
2022/06/15 07:24:10;;;;;;;4.18;1.13;;;;;;;16.03;100.00;102019.09;10218621;28;20073;-70
2022/06/15 07:29:09;;;;;;;4.70;1.20;;;;;;;16.04;100.00;102016.00;10227527;28;20132;-71
2022/06/15 07:34:06;;;;;;;6.05;1.30;;;;;;;16.17;100.00;102014.22;10223839;28;20140;-72
2022/06/15 07:39:05;;;;;;;6.97;1.42;;;;;;;16.33;100.00;102017.31;10224554;28;20517;-72
2022/06/15 07:44:02;;;;;;;3.95;1.20;;;;;;;16.46;100.00;102016.34;10223514;28;20525;-71
2022/06/15 07:54:16;;;;;;;3.33;0.90;;;;;;;16.75;100.00;102017.56;10220197;28;20052;-72
2022/06/15 07:59:14;;;;;;;6.80;3.33;;;;;;;16.88;100.00;102016.59;10217198;28;20521;-71
2022/06/15 08:04:12;;;;;;;4.30;1.60;;;;;;;16.72;100.00;102008.00;10218679;28;20509;-71
2022/06/15 08:09:10;;;;;;;9.63;1.35;;;;;;;16.61;100.00;102015.81;10224043;28;20042;-71
2022/06/15 08:14:07;;;;;;;4.55;1.40;;;;;;;16.52;100.00;102009.47;10205932;28;20482;-71
2022/06/15 08:19:03;;;;;;;4.57;1.13;;;;;;;16.51;100.00;102023.63;10222887;28;20045;-71
2022/06/15 08:24:01;;;;;;;4.55;1.30;;;;;;;16.58;100.00;102027.50;10216696;28;20065;-71
2022/06/15 08:29:01;;;;;;;7.68;1.30;;;;;;;16.74;100.00;102013.19;10226058;28;20041;-71
2022/06/15 08:33:58;;;;;;;4.47;1.20;;;;;;;16.93;100.00;102013.66;10232733;28;20084;-71
2022/06/15 08:38:56;;;;;;;4.65;1.17;;;;;;;17.11;100.00;102002.56;10231077;28;20091;-71
2022/06/15 08:44:08;;;;;;;5.53;1.25;;;;;;;17.17;100.00;102001.22;10227916;28;20068;-71
2022/06/15 08:49:13;;;;;;;3.67;0.85;;;;;;;17.22;100.00;101993.56;10227198;28;20067;-71
2022/06/15 08:54:20;;;;;;;3.20;0.95;;;;;;;17.38;100.00;101991.06;10223111;28;20045;-71
2022/06/15 08:59:36;;;;;;;6.85;1.25;;;;;;;17.44;100.00;101994.44;10225333;28;20136;-71
2022/06/15 09:04:38;;;;;;;4.00;0.90;;;;;;;17.63;100.00;101992.03;10229654;28;20041;-71
2022/06/15 09:09:56;;;;;;;;;;;;;;;17.77;100.00;101991.78;10230520;28;20416;-72
2022/06/15 09:15:04;;;;;;;5.30;1.25;;;;;;;18.13;100.00;101993.19;10232311;28;19963;-71
2022/06/15 09:20:10;;;;;;;3.78;1.00;;;;;;;18.76;100.00;101992.25;10239993;28;20088;-71
2022/06/15 09:25:26;;;;;;;3.72;0.85;;;;;;;18.90;96.29;101992.78;10221227;28;20070;-71
2022/06/15 09:30:31;;;;;;;3.50;1.00;;;;;;;19.28;100.00;101986.09;10230151;28;20170;-71
2022/06/15 09:35:38;;;;;;;3.10;1.00;;;;;;;19.09;92.17;101984.69;10226090;28;20045;-71
2022/06/15 09:40:46;;;;;;;5.10;1.60;;;;;;;18.69;88.14;101985.31;10226821;28;20045;-71
2022/06/15 09:46:14;;;;;;;7.15;1.30;;;;;;;18.45;91.57;101982.44;10220915;28;20089;-71
2022/06/15 09:51:28;;;;;;;5.00;0.88;;;;;;;18.25;88.45;101984.91;10203621;28;20045;-71
2022/06/15 09:56:25;;;;;;;7.32;1.10;;;;;;;18.15;91.01;101985.34;10217518;28;20588;-71
2022/06/15 10:01:26;;;;;;;3.70;1.17;;;;;;;18.67;90.72;101979.28;10220325;28;20402;-67
2022/06/15 10:06:44;;;;;;;5.97;1.30;;;;;;;19.03;81.60;101974.19;10224668;28;20049;-67
2022/06/15 10:11:48;;;;;;;5.53;1.25;;;;;;;19.20;78.28;101978.72;10226231;28;20045;-67
2022/06/15 10:16:54;;;;;;;5.50;1.10;;;;;;;20.45;76.75;101970.59;10225550;28;20081;-67
2022/06/15 10:22:00;;;;;;;4.00;0.90;;;;;;;21.90;79.04;101966.19;10221896;28;20103;-67
2022/06/15 10:27:15;;;;;;;4.47;0.98;;;;;;;23.10;66.80;101954.16;10218711;28;20085;-67
2022/06/15 10:32:12;;;;;;;4.20;1.20;;;;;;;22.16;60.10;101953.59;10224254;28;20037;-67
2022/06/15 10:37:18;;;;;;;6.28;1.60;;;;;;;23.27;54.66;101950.81;10216601;28;20134;-67
2022/06/15 10:42:34;;;;;;;4.93;1.33;;;;;;;24.69;53.72;101947.44;10220038;28;20453;-67
2022/06/15 10:47:50;;;;;;;4.53;1.30;;;;;;;23.53;47.88;101943.59;10221953;28;20050;-67
2022/06/15 10:52:52;;;;;;;2.95;1.08;;;;;;;22.11;50.35;101937.19;10210606;28;20441;-67
2022/06/15 11:03:21;;;;;;;5.00;1.50;;;;;;;20.45;59.94;101938.06;10213511;28;20497;-67
2022/06/15 11:08:26;;;;;;;6.25;1.98;;;;;;;20.35;63.74;101933.81;10219019;28;20175;-67
2022/06/15 11:13:33;;;;;;;5.00;1.55;;;;;;;20.31;67.52;101926.56;10225250;28;20037;-67
2022/06/15 11:18:38;;;;;;;4.75;1.90;;;;;;;20.10;64.86;101918.44;10219219;28;20115;-67
2022/06/15 11:24:06;;;;;;;4.35;1.58;;;;;;;20.41;67.15;101914.13;10222852;28;20147;-67
2022/06/15 11:29:16;;;;;;;4.78;1.50;;;;;;;22.62;61.54;101906.31;10216407;28;20049;-67
2022/06/15 11:34:34;;;;;;;4.93;1.27;;;;;;;25.08;59.46;101899.34;10223819;28;20119;-67
2022/06/15 11:39:36;;;;;;;5.55;2.15;;;;;;;24.87;46.93;101897.22;10220010;28;20107;-67
2022/06/15 11:44:34;;;;;;;;;;;;;;;25.93;46.06;101889.03;10216268;28;20111;-67
2022/06/15 11:49:52;;;;;;;4.82;1.33;;;;;;;26.76;46.39;101884.34;10224709;28;20412;-67
2022/06/15 11:55:34;;;;;;;3.25;1.27;;;;;;;26.93;42.24;101879.94;10208268;28;20079;-67
2022/06/15 12:00:37;;;;;;;4.93;1.35;;;;;;;26.39;41.84;101877.91;10208804;28;20505;-67
2022/06/15 12:05:37;;;;;;;3.80;1.05;;;;;;;27.27;49.47;101871.88;10224235;28;20517;-67
2022/06/15 12:10:44;;;;;;;4.32;1.48;;;;;;;26.70;43.11;101871.94;10226567;28;20080;-67
2022/06/15 12:15:45;;;;;;;4.57;1.40;;;;;;;26.69;46.04;101873.13;10217611;28;20071;-67
2022/06/15 12:21:04;;;;;;;4.40;1.67;;;;;;;25.39;43.66;101881.19;10220785;28;20103;-67
2022/06/15 12:26:26;;;;;;;4.40;1.48;;;;;;;24.07;46.51;101878.09;10210733;28;20505;-67
2022/06/15 12:31:37;;;;;;;4.93;1.20;;;;;;;23.34;51.45;101865.59;10221344;28;20033;-67
2022/06/15 12:36:42;;;;;;;3.67;1.00;;;;;;;23.49;63.46;101871.00;10213119;28;20517;-67
2022/06/15 12:46:57;;;;;;;4.82;1.50;;;;;;;22.88;52.93;101864.53;10212677;28;20100;-67
2022/06/15 12:52:18;;;;;;;5.45;1.52;;;;;;;23.38;53.52;101863.66;10214953;28;20049;-65
2022/06/15 12:57:35;;;;;;;5.00;1.30;;;;;;;23.82;66.21;101854.66;10222493;28;20072;-67
2022/06/15 13:02:38;;;;;;;4.95;1.70;;;;;;;23.92;55.51;101854.78;10215884;28;20045;-67
2022/06/15 13:07:36;;;;;;;5.90;1.30;;;;;;;23.52;54.31;101864.66;10221330;28;20038;-67
2022/06/15 13:12:46;;;;;;;4.40;1.30;;;;;;;23.10;55.28;101859.31;10221751;28;20548;-67
2022/06/15 13:18:11;;;;;;;5.20;1.35;;;;;;;23.37;62.83;101856.47;10222380;28;20049;-67
2022/06/15 13:23:26;;;;;;;4.13;1.20;;;;;;;23.42;59.86;101847.78;10223512;28;20056;-67
2022/06/15 13:28:34;;;;;;;4.40;1.38;;;;;;;23.40;66.88;101856.53;10221013;28;20081;-67
2022/06/15 13:33:45;;;;;;;5.03;1.50;;;;;;;23.47;74.29;101844.66;10228290;28;20037;-67
2022/06/15 13:38:43;;;;;;;5.90;1.20;;;;;;;23.70;68.51;101850.91;10239433;28;20079;-67
2022/06/15 13:43:42;;;;;;;5.68;1.50;;;;;;;23.70;71.24;101839.75;10227939;28;20116;-67
2022/06/15 13:48:43;;;;;;;7.82;1.40;;;;;;;23.39;54.65;101840.16;10214803;28;20632;-67
2022/06/15 13:54:25;;;;;;;6.68;1.73;;;;;;;22.98;54.54;101835.19;10226936;28;20041;-67
2022/06/15 13:59:34;;;;;;;4.00;1.38;;;;;;;22.53;49.74;101836.06;10211356;28;20049;-67
2022/06/15 14:04:51;;;;;;;5.22;1.15;;;;;;;22.40;52.37;101839.06;10218460;28;20095;-67
2022/06/15 14:10:05;;;;;;;4.47;1.15;;;;;;;22.52;49.78;101834.47;10228542;28;20057;-67
2022/06/15 14:15:35;;;;;;;7.05;1.50;;;;;;;22.95;55.69;101823.97;10217312;28;20501;-68
2022/06/15 14:20:38;;;;;;;3.63;1.17;;;;;;;23.18;51.09;101827.53;10221919;28;20492;-67
2022/06/15 14:25:46;;;;;;;4.90;1.23;;;;;;;23.92;50.05;101826.84;10227502;28;20065;-67
2022/06/15 14:30:46;;;;;;;5.40;1.20;;;;;;;24.53;46.67;101816.28;10227239;28;20057;-67
2022/06/15 14:35:42;;;;;;;4.25;1.17;;;;;;;24.35;42.83;101820.88;10220183;28;20470;-67
2022/06/15 14:40:43;;;;;;;8.95;2.17;;;;;;;24.07;43.87;101816.63;10218368;28;20517;-67
2022/06/15 14:45:44;;;;;;;3.53;1.13;;;;;;;23.97;49.10;101811.72;10217155;28;20045;-67
2022/06/15 14:50:43;;;;;;;5.10;1.13;;;;;;;24.24;53.91;101808.81;10225478;28;20128;-67
2022/06/15 14:55:45;;;;;;;4.93;1.40;;;;;;;24.37;50.83;101818.50;10214582;28;20065;-67
2022/06/15 15:00:44;;;;;;;8.73;1.67;;;;;;;24.17;50.04;101808.75;10222442;28;20073;-67
2022/06/15 15:05:41;;;;;;;5.32;1.35;;;;;;;24.24;52.18;101814.38;10221017;28;20549;-67
2022/06/15 15:10:40;;;;;;;5.75;1.35;;;;;;;24.39;48.08;101804.91;10223282;28;20506;-67
2022/06/15 15:15:45;;;;;;;4.40;1.27;;;;;;;24.84;57.85;101802.91;10214257;28;20065;-67
2022/06/15 15:20:46;;;;;;;3.42;0.90;;;;;;;24.88;58.24;101798.13;10215821;28;20049;-67
2022/06/15 15:25:45;;;;;;;4.13;1.10;;;;;;;24.72;55.53;101792.03;10215972;28;20524;-67
2022/06/15 15:41:41;;;;;;;4.47;1.00;;;;;;;24.95;63.89;101786.97;10223524;28;20045;-67
2022/06/15 15:46:37;;;;;;;3.78;0.88;;;;;;;24.71;66.89;101787.63;10222204;28;20045;-67
2022/06/15 15:51:34;;;;;;;5.13;1.30;;;;;;;24.86;50.85;101778.13;10214548;28;20051;-67
2022/06/15 15:56:31;;;;;;;5.05;1.40;;;;;;;24.87;48.20;101774.13;10214963;28;20125;-67
2022/06/15 16:01:28;;;;;;;6.30;1.00;;;;;;;25.62;57.26;101779.25;10222477;28;20057;-67
2022/06/15 16:06:25;;;;;;;5.93;1.80;;;;;;;26.58;50.54;101770.19;10222433;28;20049;-67
2022/06/15 16:11:21;;;;;;;8.63;1.70;;;;;;;26.66;42.44;101773.75;10220055;28;20069;-67
2022/06/15 16:16:18;;;;;;;4.28;1.30;;;;;;;26.91;44.17;101770.91;10215803;28;20041;-67
2022/06/15 16:21:14;;;;;;;6.50;1.50;;;;;;;27.11;41.61;101776.03;10202154;28;20052;-67
2022/06/15 16:26:12;;;;;;;6.22;1.38;;;;;;;27.30;41.58;101764.38;10199470;28;20034;-67
2022/06/15 16:31:09;;;;;;;3.70;1.25;;;;;;;27.32;47.18;101767.56;10214957;28;20461;-67
2022/06/15 16:36:06;;;;;;;5.07;1.20;;;;;;;26.84;40.37;101768.91;10196337;28;20042;-67
2022/06/15 16:41:09;;;;;;;3.83;1.38;;;;;;;26.40;46.49;101778.56;10208532;28;20053;-67
2022/06/15 16:46:05;;;;;;;4.07;1.30;;;;;;;26.18;39.91;101766.59;10206544;28;20046;-67
2022/06/15 16:51:04;;;;;;;2.90;1.30;;;;;;;26.42;45.89;101759.34;10224292;28;20197;-67
2022/06/15 16:56:05;;;;;;;4.38;1.33;;;;;;;26.41;39.81;101754.13;10220679;28;20424;-67
2022/06/15 17:01:02;;;;;;;5.85;1.52;;;;;;;26.51;49.95;101756.13;10229071;28;20096;-67
2022/06/15 17:05:59;;;;;;;4.82;1.70;;;;;;;26.65;39.02;101756.13;10223093;28;20128;-67
2022/06/15 17:11:11;;;;;;;;;;;;;;;26.38;39.62;101746.53;10221981;28;20148;-66
2022/06/15 17:16:09;;;;;;;6.05;1.50;;;;;;;26.21;43.00;101746.16;10229131;28;20373;-67
2022/06/15 17:21:07;;;;;;;4.57;1.40;;;;;;;25.65;43.27;101744.88;10227305;28;20045;-67
2022/06/15 17:26:06;;;;;;;7.80;1.80;;;;;;;25.46;43.80;101753.63;10218734;28;20072;-68
2022/06/15 17:31:07;;;;;;;4.60;1.15;;;;;;;25.43;56.76;101749.63;10229340;28;20053;-68
2022/06/15 17:36:03;;;;;;;7.10;1.50;;;;;;;25.51;59.09;101750.47;10221201;28;20041;-68
2022/06/15 17:41:00;;;;;;;6.10;1.70;;;;;;;25.81;41.90;101745.31;10219332;28;20053;-68
2022/06/15 17:45:59;;;;;;;6.38;1.30;;;;;;;25.51;41.39;101747.66;10220790;28;20042;-68
2022/06/15 17:50:57;;;;;;;3.92;1.25;;;;;;;25.10;44.92;101747.88;10226111;28;20060;-68
2022/06/15 17:55:55;;;;;;;5.20;1.50;;;;;;;24.29;47.00;101758.13;10219216;28;20120;-68
2022/06/15 18:00:51;;;;;;;4.45;1.30;;;;;;;23.75;43.51;101754.06;10225482;28;20049;-68
2022/06/15 18:05:48;;;;;;;4.63;1.73;;;;;;;23.30;44.26;101757.56;10223936;28;20425;-68
2022/06/15 18:10:44;;;;;;;5.75;1.60;;;;;;;23.04;48.13;101754.81;10227365;28;20509;-66
2022/06/15 18:15:41;;;;;;;4.20;1.77;;;;;;;22.78;47.71;101753.63;10221586;28;20088;-68
2022/06/15 18:20:39;;;;;;;5.57;1.65;;;;;;;22.47;48.12;101752.78;10224362;28;20069;-68
2022/06/15 18:25:36;;;;;;;5.55;1.73;;;;;;;22.18;51.35;101753.47;10219981;28;20075;-67
2022/06/15 18:30:34;;;;;;;4.25;1.52;;;;;;;22.08;55.96;101751.34;10227187;28;20128;-69
2022/06/15 18:35:32;;;;;;;5.72;1.63;;;;;;;21.92;52.92;101757.81;10220424;28;20041;-68
2022/06/15 18:40:32;;;;;;;6.03;1.88;;;;;;;21.86;56.54;101753.72;10218483;28;20091;-68
2022/06/15 18:50:44;;;;;;;4.28;1.20;;;;;;;21.56;56.94;101754.38;10218036;28;20103;-68
2022/06/15 18:55:40;;;;;;;5.85;1.85;;;;;;;21.46;56.00;101763.31;10217007;28;20077;-68
2022/06/15 19:00:39;;;;;;;4.22;1.77;;;;;;;21.32;63.06;101763.00;10218179;28;20107;-68
2022/06/15 19:05:39;;;;;;;5.70;1.73;;;;;;;21.23;60.72;101755.69;10223756;28;20056;-68
2022/06/15 19:10:37;;;;;;;5.68;1.60;;;;;;;21.07;61.12;101760.50;10223342;28;20398;-68
2022/06/15 19:15:35;;;;;;;7.40;1.90;;;;;;;20.67;58.35;101769.94;10219751;28;20460;-68
2022/06/15 19:20:34;;;;;;;6.90;3.15;;;;;;;20.46;59.89;101772.19;10218285;28;20049;-68
2022/06/15 19:25:33;;;;;;;5.57;1.45;;;;;;;20.15;60.91;101773.81;10215947;28;20129;-68
2022/06/15 19:30:30;;;;;;;24.58;11.05;;;;;;;19.97;61.47;101774.16;10225645;28;20072;-68
2022/06/15 19:35:26;;;;;;;5.88;1.92;;;;;;;19.70;62.73;101781.38;10218217;28;20073;-68
2022/06/15 19:40:29;;;;;;;4.95;1.90;;;;;;;19.73;63.26;101785.41;10226332;28;20572;-68
2022/06/15 19:45:27;;;;;;;5.75;1.52;;;;;;;19.59;66.91;101791.31;10217465;28;20460;-68
2022/06/15 19:50:23;;;;;;;4.65;1.60;;;;;;;19.47;65.79;101788.59;10224018;28;20045;-68
2022/06/15 19:55:20;;;;;;;4.72;1.80;;;;;;;19.37;65.73;101800.19;10219751;28;20130;-68
2022/06/15 20:00:19;;;;;;;6.25;2.10;;;;;;;19.31;66.22;101813.50;10212495;28;20041;-68
2022/06/15 20:05:15;;;;;;;3.90;1.50;;;;;;;19.19;67.88;101805.19;10223990;28;20111;-68
2022/06/15 20:10:16;;;;;;;4.57;1.48;;;;;;;19.05;67.74;101800.84;10216878;28;20136;-68
2022/06/15 20:15:13;;;;;;;6.10;1.90;;;;;;;19.02;69.47;101812.63;10222307;28;20080;-68
2022/06/15 20:20:13;;;;;;;4.57;1.85;;;;;;;18.84;75.04;101817.59;10215244;28;20091;-68
2022/06/15 20:25:11;;;;;;;5.53;1.80;;;;;;;18.80;78.02;101818.66;10215969;28;20046;-68
2022/06/15 20:30:09;;;;;;;4.82;1.70;;;;;;;18.73;79.80;101827.53;10230773;28;20104;-68
2022/06/15 20:35:06;;;;;;;5.93;1.52;;;;;;;18.65;81.26;101820.13;10222546;28;20050;-68
2022/06/15 20:40:04;;;;;;;3.75;1.33;;;;;;;18.60;85.79;101826.72;10217543;28;20505;-68
2022/06/15 20:45:05;;;;;;;7.80;1.83;;;;;;;18.52;89.24;101822.09;10223048;28;20482;-68
2022/06/15 20:50:04;;;;;;;4.72;1.60;;;;;;;18.40;90.84;101824.84;10217715;28;20497;-68
2022/06/15 20:55:01;;;;;;;4.50;1.60;;;;;;;18.27;93.44;101833.13;10223961;28;20151;-68
2022/06/15 20:59:58;;;;;;;4.20;1.67;;;;;;;18.16;95.63;101828.38;10226502;28;20084;-68
2022/06/15 21:04:55;;;;;;;6.90;2.30;;;;;;;18.03;97.74;101833.06;10229211;28;20073;-68
2022/06/15 21:20:23;;;;;;;5.82;1.73;;;;;;;17.75;100.00;101830.06;10228895;28;20152;-68
2022/06/15 21:25:25;;;;;;;6.88;2.08;;;;;;;17.67;100.00;101837.31;10222065;28;20124;-68
2022/06/15 21:30:23;;;;;;;4.63;1.80;;;;;;;17.57;100.00;101826.66;10225571;28;20139;-68
2022/06/15 21:35:20;;;;;;;6.30;2.20;;;;;;;17.56;100.00;101825.03;10217729;28;20057;-68
2022/06/15 21:40:18;;;;;;;6.30;1.63;;;;;;;17.49;100.00;101824.78;10220075;28;20129;-68
2022/06/15 21:45:21;;;;;;;4.00;1.95;;;;;;;17.45;100.00;101830.16;10226711;28;20139;-68
2022/06/15 21:50:18;;;;;;;7.53;2.70;;;;;;;17.36;100.00;101833.00;10228038;28;20046;-68
2022/06/15 21:55:15;;;;;;;5.85;2.30;;;;;;;17.36;100.00;101834.94;10215292;28;20095;-65
2022/06/15 22:00:14;;;;;;;7.40;3.22;;;;;;;17.37;100.00;101829.09;10213039;28;20092;-66
2022/06/15 22:05:13;;;;;;;5.75;2.47;;;;;;;17.39;100.00;101837.84;10211703;28;20064;-64
2022/06/15 22:10:12;;;;;;;5.97;2.40;;;;;;;17.32;100.00;101831.25;10199623;28;20473;-66
2022/06/15 22:15:10;;;;;;;5.63;2.60;;;;;;;17.31;100.00;101841.47;10209379;28;20107;-65
2022/06/15 22:20:11;;;;;;;7.22;1.83;;;;;;;17.24;100.00;101846.72;10206684;28;20045;-64
2022/06/15 22:25:10;;;;;;;5.68;2.30;;;;;;;17.19;100.00;101833.13;10210005;28;20129;-64
2022/06/15 22:30:09;;;;;;;4.75;1.95;;;;;;;17.10;100.00;101833.16;10227155;28;20136;-63
2022/06/15 22:35:07;;;;;;;4.57;1.85;;;;;;;17.04;100.00;101827.03;10217736;28;20103;-63
2022/06/15 22:40:09;;;;;;;5.50;1.95;;;;;;;16.98;100.00;101831.13;10227060;28;20049;-63
2022/06/15 22:45:07;;;;;;;5.60;1.60;;;;;;;16.84;100.00;101838.84;10218975;28;20466;-64
2022/06/15 22:55:19;;;;;;;6.15;1.80;;;;;;;16.72;100.00;101835.97;10212689;28;20095;-64
2022/06/15 23:00:17;;;;;;;5.55;1.80;;;;;;;16.65;100.00;101844.78;10217963;28;20101;-64
2022/06/15 23:05:13;;;;;;;7.28;1.90;;;;;;;16.65;100.00;101835.69;10227591;28;20525;-64
2022/06/15 23:10:10;;;;;;;4.05;1.52;;;;;;;16.62;100.00;101832.44;10223851;28;20082;-62
2022/06/15 23:15:07;;;;;;;5.40;1.80;;;;;;;16.63;100.00;101845.09;10227238;28;20136;-64
2022/06/15 23:20:05;;;;;;;5.80;1.58;;;;;;;16.58;100.00;101859.09;10228671;28;20362;-63
2022/06/15 23:25:02;;;;;;;5.35;1.92;;;;;;;16.49;100.00;101877.63;10225564;28;20505;-64
2022/06/15 23:29:58;;;;;;;5.25;1.67;;;;;;;16.39;100.00;101862.25;10228867;28;20129;-64
2022/06/15 23:34:55;;;;;;;5.05;1.85;;;;;;;16.37;100.00;101852.69;10221353;28;20049;-61
2022/06/15 23:39:52;;;;;;;5.30;1.40;;;;;;;16.37;100.00;101849.91;10224062;28;20085;-62
2022/06/15 23:44:55;;;;;;;8.02;1.80;;;;;;;16.25;100.00;101855.31;10222032;28;20095;-62
2022/06/15 23:49:54;;;;;;;4.68;1.63;;;;;;;16.12;100.00;101857.94;10222264;28;20045;-63